Time;durP1;ratioP1;P1;durP2;ratioP2;P2;SDS_P1;SDS_P2;PMS_P1;PMS_P2;Temp;Humidity;BMP_temperature;BMP_pressure;BME280_temperature;BME280_humidity;BME280_pressure;Samples;Min_cycle;Max_cycle;Signal;HPM_P1;HPM_P2
2021/10/01 00:00:29;;;;;;;17.23;4.87;;;;;;;;;;4874659;28;20255;-75
2021/10/01 00:02:52;;;;;;;0.63;0.63;;;5.00;99.90;;;;;;4876383;28;20450;-75
2021/10/01 00:05:15;;;;;;;0.50;0.50;;;5.10;99.90;;;;;;4876440;28;20189;-75
2021/10/01 00:07:38;;;;;;;0.57;0.57;;;5.00;30.00;;;;;;4874556;28;20611;-75
2021/10/01 00:10:00;;;;;;;0.60;0.60;;;5.00;99.90;;;;;;4877160;28;20602;-74
2021/10/01 00:12:23;;;;;;;0.33;0.33;;;4.90;99.90;;;;;;4859455;28;20194;-76
2021/10/01 00:14:46;;;;;;;0.50;0.50;;;4.80;99.90;;;;;;4877518;28;20716;-75
2021/10/01 00:17:09;;;;;;;0.40;0.40;;;;;;;;;;4875539;28;20275;-74
2021/10/01 00:19:34;;;;;;;0.30;0.30;;;4.80;99.90;;;;;;4875886;28;20201;-74
2021/10/01 00:21:58;;;;;;;0.50;0.50;;;4.70;99.90;;;;;;4858738;28;20256;-75
2021/10/01 00:24:21;;;;;;;0.30;0.30;;;4.40;99.90;;;;;;4875949;28;20193;-78
2021/10/01 00:26:44;;;;;;;0.40;0.40;;;4.40;99.90;;;;;;4877220;28;20258;-77
2021/10/01 00:29:07;;;;;;;0.43;0.43;;;4.30;30.00;;;;;;4858291;28;20193;-78
2021/10/01 00:31:30;;;;;;;0.40;0.40;;;4.20;30.30;;;;;;4877123;28;20582;-78
2021/10/01 00:33:53;;;;;;;0.40;0.40;;;4.20;99.90;;;;;;4875601;28;20197;-77
2021/10/01 00:36:17;;;;;;;0.30;0.30;;;3.00;30.40;;;;;;4876977;28;20700;-76
2021/10/01 00:38:40;;;;;;;0.30;0.30;;;;;;;;;;4875911;28;20251;-77
2021/10/01 00:41:02;;;;;;;0.30;0.30;;;;;;;;;;4875557;28;20197;-77
2021/10/01 00:43:25;;;;;;;0.30;0.30;;;;;;;;;;4876940;28;20189;-78
2021/10/01 00:45:48;;;;;;;0.30;0.30;;;3.20;30.20;;;;;;4875915;28;20201;-77
2021/10/01 00:48:10;;;;;;;0.30;0.30;;;3.70;30.70;;;;;;4876812;28;20231;-76
2021/10/01 00:50:33;;;;;;;0.40;0.40;;;;;;;;;;4855666;28;20255;-76
2021/10/01 00:52:58;;;;;;;0.40;0.40;;;3.90;99.90;;;;;;4857343;28;20206;-76
2021/10/01 00:55:21;;;;;;;0.50;0.50;;;4.10;99.90;;;;;;4857499;28;20185;-80
2021/10/01 00:57:43;;;;;;;0.40;0.40;;;4.00;30.50;;;;;;4840368;28;20256;-77
2021/10/01 01:00:16;;;;;;;0.30;0.30;;;3.70;99.90;;;;;;4865611;28;20801;-78
2021/10/01 01:02:39;;;;;;;0.30;0.30;;;4.00;30.30;;;;;;4872988;28;20225;-76
2021/10/01 01:05:01;;;;;;;0.40;0.40;;;4.10;30.00;;;;;;4857403;28;20191;-77
2021/10/01 01:07:32;;;;;;;0.30;0.30;;;3.90;30.60;;;;;;4876189;28;20213;-77
2021/10/01 01:10:04;;;;;;;0.40;0.40;;;3.80;99.90;;;;;;4875002;28;20223;-78
2021/10/01 01:12:43;;;;;;;0.23;0.23;;;3.90;30.40;;;;;;4874478;28;20740;-76
2021/10/01 01:15:10;;;;;;;0.50;0.50;;;3.80;30.40;;;;;;4874771;28;20206;-74
2021/10/01 01:17:41;;;;;;;0.50;0.50;;;4.00;99.90;;;;;;4874532;28;20259;-75
2021/10/01 01:20:09;;;;;;;0.40;0.40;;;3.80;30.30;;;;;;4858186;28;20217;-75
2021/10/01 01:22:39;;;;;;;0.47;0.47;;;3.90;30.20;;;;;;4855619;28;20275;-75
2021/10/01 01:25:20;;;;;;;0.50;0.50;;;3.90;30.10;;;;;;4864127;28;20205;-76
2021/10/01 01:27:51;;;;;;;0.40;0.40;;;3.90;30.20;;;;;;4874901;28;20224;-74
2021/10/01 01:30:19;;;;;;;0.30;0.30;;;3.90;30.10;;;;;;4874612;28;20198;-74
2021/10/01 01:32:58;;;;;;;0.37;0.37;;;3.90;30.00;;;;;;4873932;28;20259;-75
2021/10/01 01:35:25;;;;;;;0.30;0.30;;;4.00;99.90;;;;;;4858173;28;20206;-74
2021/10/01 01:37:52;;;;;;;0.30;0.30;;;3.90;99.90;;;;;;4873937;28;20201;-74
2021/10/01 01:40:18;;;;;;;0.30;0.30;;;3.90;99.90;;;;;;4858525;28;20666;-73
2021/10/01 01:42:43;;;;;;;0.40;0.40;;;3.90;99.90;;;;;;4875184;28;20201;-74
2021/10/01 01:45:10;;;;;;;0.33;0.33;;;3.80;99.90;;;;;;4874908;28;20251;-74
2021/10/01 01:47:33;;;;;;;0.30;0.30;;;4.10;99.90;;;;;;4874618;28;20286;-74
2021/10/01 01:49:59;;;;;;;0.33;0.33;;;3.80;99.90;;;;;;4857499;28;20198;-74
2021/10/01 01:52:22;;;;;;;0.50;0.50;;;3.70;99.90;;;;;;4874752;28;20263;-74
2021/10/01 01:54:46;;;;;;;0.30;0.30;;;4.10;99.90;;;;;;4874309;28;20213;-74
2021/10/01 01:57:10;;;;;;;0.30;0.30;;;4.00;99.90;;;;;;4875934;28;20243;-75
2021/10/01 01:59:33;;;;;;;0.20;0.20;;;3.80;99.90;;;;;;4874595;28;20201;-74
2021/10/01 02:01:57;;;;;;;0.40;0.40;;;4.00;99.90;;;;;;4872420;28;20205;-75
2021/10/01 02:04:22;;;;;;;0.30;0.30;;;4.00;99.90;;;;;;4874502;28;20275;-75
2021/10/01 02:06:48;;;;;;;0.20;0.20;;;2.80;99.90;;;;;;4874339;28;20655;-74
2021/10/01 02:09:13;;;;;;;0.20;0.20;;;3.90;99.90;;;;;;4874673;28;20239;-75
2021/10/01 02:11:37;;;;;;;0.20;0.20;;;4.00;99.90;;;;;;4857688;28;20194;-74
2021/10/01 02:14:01;;;;;;;0.40;0.40;;;3.90;30.20;;;;;;4875303;28;20201;-77
2021/10/01 02:16:26;;;;;;;0.30;0.30;;;3.90;30.20;;;;;;4875790;28;20201;-76
2021/10/01 02:18:51;;;;;;;0.30;0.30;;;4.00;99.90;;;;;;4878470;28;20280;-77
2021/10/01 02:21:15;;;;;;;0.37;0.37;;;3.80;30.00;;;;;;4877945;28;20443;-77
2021/10/01 02:23:40;;;;;;;0.40;0.40;;;4.10;30.50;;;;;;4877715;28;20201;-77
2021/10/01 02:28:53;;;;;;;0.20;0.20;;;3.70;31.30;;;;;;4861153;28;20248;-77
2021/10/01 02:31:24;;;;;;;0.40;0.40;;;3.00;30.40;;;;;;4861169;28;20295;-77
2021/10/01 02:33:51;;;;;;;0.20;0.20;;;3.50;31.60;;;;;;4878036;28;20287;-74
2021/10/01 02:36:14;;;;;;;0.20;0.20;;;3.50;31.60;;;;;;4877888;28;20255;-77
2021/10/01 02:38:41;;;;;;;0.30;0.30;;;3.70;30.80;;;;;;4877797;28;20837;-77
2021/10/01 02:41:04;;;;;;;0.30;0.30;;;;;;;;;;4877517;28;20208;-77
2021/10/01 02:43:26;;;;;;;0.30;0.30;;;;;;;;;;4877640;28;20197;-78
2021/10/01 02:45:49;;;;;;;0.20;0.20;;;;;;;;;;4878962;28;20239;-77
2021/10/01 02:48:12;;;;;;;0.30;0.30;;;3.70;31.00;;;;;;4878634;28;20213;-78
2021/10/01 02:50:35;;;;;;;0.20;0.20;;;3.60;30.90;;;;;;4877523;28;20206;-78
2021/10/01 02:53:02;;;;;;;0.50;0.50;;;3.80;30.10;;;;;;4877249;28;20224;-78
2021/10/01 02:55:39;;;;;;;0.40;0.40;;;3.70;30.90;;;;;;4859706;28;20275;-76
2021/10/01 02:58:09;;;;;;;0.40;0.40;;;3.70;99.90;;;;;;4877084;28;20736;-77
2021/10/01 03:00:32;;;;;;;1.27;1.27;;;3.50;99.90;;;;;;4875643;28;20201;-78
2021/10/01 03:02:56;;;;;;;0.40;0.40;;;3.80;30.30;;;;;;4876748;28;20279;-77
2021/10/01 03:05:20;;;;;;;0.40;0.40;;;3.90;99.90;;;;;;4877103;28;20201;-77
2021/10/01 03:07:45;;;;;;;0.30;0.30;;;3.90;30.10;;;;;;4876989;28;20189;-76
2021/10/01 03:10:10;;;;;;;0.40;0.40;;;4.00;30.00;;;;;;4876460;28;20231;-78
2021/10/01 03:12:35;;;;;;;0.30;0.30;;;3.90;30.20;;;;;;4876849;28;20266;-78
2021/10/01 03:14:58;;;;;;;0.40;0.40;;;3.90;99.90;;;;;;4859689;28;20198;-78
2021/10/01 03:17:21;;;;;;;0.30;0.30;;;1.70;99.90;;;;;;4860425;28;20237;-77
2021/10/01 03:19:44;;;;;;;0.70;0.70;;;3.20;99.90;;;;;;4876978;28;20249;-76
2021/10/01 03:22:08;;;;;;;0.50;0.50;;;4.20;99.90;;;;;;4876984;28;20236;-78
2021/10/01 03:24:32;;;;;;;0.40;0.40;;;4.10;99.90;;;;;;4876948;28;20931;-76
2021/10/01 03:26:55;;;;;;;0.57;0.57;;;4.30;99.90;;;;;;4859723;28;20239;-77
2021/10/01 03:29:20;;;;;;;0.50;0.50;;;4.20;99.90;;;;;;4875843;28;20235;-77
2021/10/01 03:31:42;;;;;;;0.33;0.33;;;;;;;;;;4876691;28;20231;-77
2021/10/01 03:34:07;;;;;;;0.50;0.50;;;4.50;99.90;;;;;;4876390;28;20720;-77
2021/10/01 03:36:30;;;;;;;0.40;0.40;;;5.10;99.90;;;;;;4859121;28;20244;-78
2021/10/01 03:38:54;;;;;;;0.50;0.50;;;4.40;99.90;;;;;;4876152;28;20201;-77
2021/10/01 03:41:17;;;;;;;0.50;0.50;;;4.60;99.90;;;;;;4876411;28;20722;-78
2021/10/01 03:43:41;;;;;;;0.40;0.40;;;4.70;99.90;;;;;;4876296;28;20200;-77
2021/10/01 03:46:05;;;;;;;0.60;0.60;;;4.70;99.90;;;;;;4859155;28;20634;-77
2021/10/01 03:48:28;;;;;;;0.40;0.40;;;4.80;99.90;;;;;;4876382;28;20279;-78
2021/10/01 03:50:57;;;;;;;0.63;0.63;;;;;;;;;;4876308;28;20314;-78
2021/10/01 03:53:19;;;;;;;0.50;0.50;;;4.70;99.90;;;;;;4876755;28;20659;-78
2021/10/01 03:55:42;;;;;;;0.50;0.50;;;4.60;99.90;;;;;;4876399;28;20198;-78
2021/10/01 03:58:05;;;;;;;0.57;0.57;;;;;;;;;;4859007;28;20202;-78
2021/10/01 04:00:28;;;;;;;0.87;0.87;;;4.80;99.90;;;;;;4856685;28;20256;-75
2021/10/01 04:02:52;;;;;;;0.43;0.43;;;4.90;99.90;;;;;;4872848;28;20722;-77
2021/10/01 04:05:19;;;;;;;0.47;0.47;;;4.90;99.90;;;;;;4866043;28;20197;-77
2021/10/01 04:07:42;;;;;;;0.40;0.40;;;;;;;;;;4875810;28;20637;-77
2021/10/01 04:10:05;;;;;;;0.50;0.50;;;4.90;99.90;;;;;;4875652;28;20236;-77
2021/10/01 04:12:48;;;;;;;0.60;0.60;;;5.10;99.90;;;;;;4876210;28;20181;-78
2021/10/01 04:15:39;;;;;;;0.40;0.40;;;5.00;99.90;;;;;;4876362;28;20212;-77
2021/10/01 04:18:23;;;;;;;0.50;0.50;;;5.10;99.90;;;;;;4876375;28;20182;-78
2021/10/01 04:21:06;;;;;;;0.50;0.50;;;5.70;99.90;;;;;;4875166;28;20655;-78
2021/10/01 04:23:49;;;;;;;0.50;0.50;;;5.30;99.90;;;;;;4865705;28;20551;-77
2021/10/01 04:26:34;;;;;;;0.47;0.47;;;;;;;;;;4877221;28;20185;-77
2021/10/01 04:29:17;;;;;;;0.50;0.50;;;4.50;99.90;;;;;;4875959;28;20208;-78
2021/10/01 04:32:04;;;;;;;0.60;0.60;;;5.00;99.90;;;;;;4861037;28;20204;-78
2021/10/01 04:34:33;;;;;;;0.50;0.50;;;5.10;99.90;;;;;;4875317;28;20197;-78
2021/10/01 04:37:15;;;;;;;0.40;0.40;;;5.10;99.90;;;;;;4877087;28;20638;-77
2021/10/01 04:39:58;;;;;;;0.57;0.57;;;5.00;99.90;;;;;;4858312;28;20603;-77
2021/10/01 04:42:42;;;;;;;0.50;0.50;;;4.90;99.90;;;;;;4861860;28;20648;-77
2021/10/01 04:45:25;;;;;;;0.40;0.40;;;;;;;;;;4866524;28;20189;-77
2021/10/01 04:48:08;;;;;;;0.30;0.30;;;4.90;99.90;;;;;;4856188;28;20196;-78
2021/10/01 04:50:42;;;;;;;0.30;0.30;;;4.90;99.90;;;;;;4860239;28;20193;-78
2021/10/01 04:53:05;;;;;;;0.53;0.53;;;4.80;99.90;;;;;;4874341;28;20210;-77
2021/10/01 04:55:32;;;;;;;0.40;0.40;;;4.90;99.90;;;;;;4875572;28;20686;-77
2021/10/01 04:57:54;;;;;;;0.47;0.47;;;5.00;99.90;;;;;;4858682;28;20250;-74
2021/10/01 05:00:36;;;;;;;1.57;1.47;;;4.90;99.90;;;;;;4873098;28;20185;-74
2021/10/01 05:03:34;;;;;;;0.37;0.37;;;5.10;99.90;;;;;;4876408;28;20335;-74
2021/10/01 05:06:18;;;;;;;0.30;0.30;;;5.30;99.90;;;;;;4876725;28;20193;-74
2021/10/01 05:09:00;;;;;;;0.40;0.40;;;5.10;99.90;;;;;;4864479;28;20221;-73
2021/10/01 05:11:41;;;;;;;0.40;0.40;;;5.30;99.90;;;;;;4876232;28;20228;-74
2021/10/01 05:14:23;;;;;;;0.50;0.50;;;5.30;99.90;;;;;;4876626;28;20709;-75
2021/10/01 05:17:04;;;;;;;0.60;0.60;;;5.40;99.90;;;;;;4876254;28;20247;-74
2021/10/01 05:19:45;;;;;;;0.60;0.60;;;;;;;;;;4875864;28;20291;-74
2021/10/01 05:22:38;;;;;;;0.53;0.53;;;5.50;99.90;;;;;;4856660;28;20202;-76
2021/10/01 05:25:02;;;;;;;0.83;0.83;;;5.60;99.90;;;;;;4873978;28;20189;-74
2021/10/01 05:27:25;;;;;;;0.70;0.70;;;;;;;;;;4874421;28;20270;-75
2021/10/01 05:29:48;;;;;;;0.73;0.73;;;5.80;99.90;;;;;;4874637;28;20217;-74
2021/10/01 05:32:10;;;;;;;0.80;0.80;;;;;;;;;;4874715;28;20205;-75
2021/10/01 05:34:33;;;;;;;0.80;0.80;;;6.20;99.90;;;;;;4875325;28;20201;-75
2021/10/01 05:36:56;;;;;;;0.77;0.77;;;;;;;;;;4874167;28;20194;-74
2021/10/01 05:39:20;;;;;;;0.77;0.77;;;6.10;99.90;;;;;;4875008;28;20699;-75
2021/10/01 05:41:43;;;;;;;0.70;0.70;;;;;;;;;;4874722;28;20647;-74
2021/10/01 05:44:06;;;;;;;0.70;0.70;;;6.40;99.90;;;;;;4874318;28;20675;-74
2021/10/01 05:46:28;;;;;;;0.53;0.53;;;;;;;;;;4874907;28;20713;-74
2021/10/01 05:49:13;;;;;;;0.60;0.60;;;;;;;;;;4874879;28;20205;-74
2021/10/01 05:52:39;;;;;;;0.47;0.47;;;6.10;99.90;;;;;;4829135;28;20222;-75
2021/10/01 05:55:22;;;;;;;0.53;0.53;;;6.70;99.90;;;;;;4821379;28;20767;-75
2021/10/01 05:58:17;;;;;;;0.50;0.50;;;;;;;;;;4857540;28;20201;-75
2021/10/01 06:00:48;;;;;;;0.57;0.57;;;6.80;30.80;;;;;;4872256;28;20205;-74
2021/10/01 06:03:11;;;;;;;0.40;0.40;;;;;;;;;;4874142;28;20233;-75
2021/10/01 06:05:33;;;;;;;0.50;0.50;;;;;;;;;;4874328;28;20205;-76
2021/10/01 06:07:56;;;;;;;0.70;0.70;;;7.30;32.40;;;;;;4875762;28;20190;-75
2021/10/01 06:10:18;;;;;;;0.40;0.40;;;6.90;33.50;;;;;;4875748;28;20350;-77
2021/10/01 06:12:42;;;;;;;0.60;0.60;;;8.00;35.40;;;;;;4874160;28;20193;-75
2021/10/01 06:15:06;;;;;;;0.57;0.57;;;7.20;36.70;;;;;;4873933;28;20201;-74
2021/10/01 06:17:29;;;;;;;0.60;0.60;;;;;;;;;;4873307;28;20544;-75
2021/10/01 06:19:52;;;;;;;0.50;0.50;;;;;;;;;;4874552;28;20205;-75
2021/10/01 06:22:14;;;;;;;0.67;0.67;;;7.20;37.40;;;;;;4874655;28;20617;-75
2021/10/01 06:24:37;;;;;;;0.70;0.70;;;;;;;;;;4874428;28;20259;-75
2021/10/01 06:27:00;;;;;;;0.80;0.80;;;;;;;;;;4874109;28;20220;-74
2021/10/01 06:29:24;;;;;;;0.53;0.53;;;7.50;39.20;;;;;;4875498;28;20189;-73
2021/10/01 06:31:47;;;;;;;0.47;0.47;;;7.70;38.80;;;;;;4875471;28;20601;-75
2021/10/01 06:34:10;;;;;;;0.63;0.63;;;7.80;39.30;;;;;;4874988;28;20193;-75
2021/10/01 06:36:33;;;;;;;0.43;0.43;;;8.10;40.00;;;;;;4875588;28;20178;-76
2021/10/01 06:38:56;;;;;;;0.90;0.90;;;;;;;;;;4872984;28;20561;-75
2021/10/01 06:41:19;;;;;;;0.50;0.50;;;;;;;;;;4873515;28;20267;-76
2021/10/01 06:43:43;;;;;;;0.80;0.80;;;8.10;43.00;;;;;;4871012;28;20255;-75
2021/10/01 06:46:15;;;;;;;0.60;0.60;;;7.60;42.30;;;;;;4871667;28;20193;-75
2021/10/01 06:48:47;;;;;;;0.47;0.47;;;8.60;42.20;;;;;;4876391;28;20212;-75
2021/10/01 06:51:25;;;;;;;0.40;0.40;;;8.60;42.80;;;;;;4883900;28;21052;-75
2021/10/01 07:23:49;;;;;;;0.60;0.60;;;8.90;43.00;;;;;;4868601;28;20193;-75
2021/10/01 08:19:49;;;;;;;0.30;0.30;;;12.70;47.90;;;;;;4876886;28;20185;-75
2021/10/01 08:22:14;;;;;;;0.40;0.40;;;12.90;48.30;;;;;;4851222;28;21015;-76
2021/10/01 08:24:37;;;;;;;0.60;0.60;;;13.30;47.80;;;;;;4869276;28;20549;-76
2021/10/01 08:27:00;;;;;;;0.53;0.53;;;13.30;48.70;;;;;;4876393;28;20189;-77
2021/10/01 08:29:23;;;;;;;0.50;0.50;;;;;;;;;;4858403;28;20652;-75
2021/10/01 08:31:48;;;;;;;1.63;0.90;;;13.60;48.80;;;;;;4875636;28;20792;-76
2021/10/01 08:34:11;;;;;;;7.03;1.53;;;13.70;48.40;;;;;;4876338;28;20255;-75
2021/10/01 08:36:34;;;;;;;4.40;0.90;;;14.00;49.10;;;;;;4876368;28;20192;-75
2021/10/01 08:39:02;;;;;;;9.60;1.93;;;14.20;49.50;;;;;;4874919;28;20205;-76
2021/10/01 08:41:25;;;;;;;4.43;1.10;;;;;;;;;;4874817;28;20647;-76
2021/10/01 08:43:48;;;;;;;4.77;1.17;;;;;;;;;;4858603;28;20601;-75
2021/10/01 08:46:12;;;;;;;9.60;1.67;;;15.20;50.20;;;;;;4874153;28;20186;-76
2021/10/01 08:48:36;;;;;;;7.93;1.23;;;15.50;50.20;;;;;;4875916;28;20658;-76
2021/10/01 08:51:00;;;;;;;55.63;25.83;;;15.90;50.70;;;;;;4857447;28;20248;-76
2021/10/01 08:53:23;;;;;;;2.13;1.17;;;16.50;51.30;;;;;;4875289;28;20593;-79
2021/10/01 08:55:48;;;;;;;2.73;1.10;;;17.00;52.30;;;;;;4874393;28;20193;-74
2021/10/01 08:58:11;;;;;;;1.73;0.80;;;;;;;;;;4871365;28;20236;-77
2021/10/01 09:00:34;;;;;;;17.83;6.47;;;19.20;54.20;;;;;;4865142;28;20206;-77
2021/10/01 09:02:56;;;;;;;2.30;1.13;;;20.30;55.60;;;;;;4867745;28;20266;-78
2021/10/01 09:05:19;;;;;;;1.83;1.00;;;;;;;;;;4876198;28;20246;-78
2021/10/01 09:07:42;;;;;;;1.60;0.70;;;;;;;;;;4875991;28;20207;-76
2021/10/01 09:10:09;;;;;;;8.67;3.03;;;25.50;45.20;;;;;;4870233;28;20208;-75
2021/10/01 09:12:33;;;;;;;2.67;1.03;;;27.20;47.10;;;;;;4874082;28;20279;-76
2021/10/01 09:14:59;;;;;;;4.00;1.47;;;28.80;47.20;;;;;;4876369;28;20190;-78
2021/10/01 09:17:26;;;;;;;4.53;1.23;;;29.20;48.30;;;;;;4875037;28;20193;-77
2021/10/01 09:19:50;;;;;;;4.87;1.07;;;30.20;48.80;;;;;;4876116;28;20206;-76
2021/10/01 09:22:25;;;;;;;2.17;0.57;;;31.40;49.30;;;;;;4857709;28;20360;-75
2021/10/01 09:24:47;;;;;;;3.63;0.80;;;;;;;;;;4876013;28;20203;-76
2021/10/01 09:27:11;;;;;;;10.53;1.80;;;;;;;;;;4857900;28;20578;-79
2021/10/01 09:29:38;;;;;;;6.37;0.93;;;32.60;50.00;;;;;;4876441;28;20269;-75
2021/10/01 09:32:02;;;;;;;20.07;2.53;;;32.70;50.10;;;;;;4874517;28;20240;-77
2021/10/01 09:34:37;;;;;;;2.63;0.80;;;32.90;49.50;;;;;;4858174;28;20211;-77
2021/10/01 09:37:01;;;;;;;2.70;1.27;;;33.00;50.20;;;;;;4874082;28;20208;-76
2021/10/01 09:39:30;;;;;;;1.40;0.70;;;34.00;50.10;;;;;;4875887;28;20197;-76
2021/10/01 09:41:53;;;;;;;1.67;0.60;;;;;;;;;;4874394;28;21118;-78
2021/10/01 09:44:18;;;;;;;1.50;0.73;;;;;;;;;;4874451;28;20437;-76
2021/10/01 09:46:44;;;;;;;1.90;0.80;;;36.60;51.60;;;;;;4875848;28;20189;-74
2021/10/01 09:49:08;;;;;;;3.40;1.23;;;37.50;51.90;;;;;;4874773;28;20205;-79
2021/10/01 09:51:31;;;;;;;1.95;0.70;;;;;;;;;;4858093;28;20197;-77
2021/10/01 09:53:53;;;;;;;1.58;0.50;;;38.80;51.90;;;;;;4875162;28;20189;-76
2021/10/01 09:56:23;;;;;;;2.50;0.93;;;38.90;52.00;;;;;;4869021;28;20246;-76
2021/10/01 09:59:03;;;;;;;1.73;0.80;;;39.40;52.70;;;;;;4874952;28;20181;-80
2021/10/01 10:01:26;;;;;;;2.08;0.82;;;;;;;;;;4873520;28;20216;-75
2021/10/01 10:03:50;;;;;;;2.10;0.75;;;39.90;52.80;;;;;;4874257;28;20213;-79
2021/10/01 10:06:14;;;;;;;2.10;0.82;;;;;;;;;;4876493;28;20227;-77
2021/10/01 10:08:39;;;;;;;1.75;0.77;;;40.80;52.80;;;;;;4874752;28;20227;-76
2021/10/01 10:11:03;;;;;;;3.00;1.25;;;41.10;53.30;;;;;;4874670;28;20716;-77
2021/10/01 10:13:37;;;;;;;1.88;0.70;;;41.10;53.00;;;;;;4876178;28;20235;-79
2021/10/01 10:16:08;;;;;;;2.63;1.17;;;41.30;53.00;;;;;;4875667;28;20185;-85
2021/10/01 10:18:30;;;;;;;2.17;1.00;;;41.20;52.90;;;;;;4857676;28;20255;-77
2021/10/01 10:20:54;;;;;;;1.50;0.70;;;41.60;53.50;;;;;;4873762;28;20212;-77
2021/10/01 10:23:17;;;;;;;1.75;0.75;;;41.50;53.10;;;;;;4874224;28;20667;-79
2021/10/01 10:25:39;;;;;;;1.25;0.55;;;41.50;53.10;;;;;;4875437;28;20189;-78
2021/10/01 10:28:02;;;;;;;3.80;1.48;;;41.20;53.00;;;;;;4873841;28;20649;-78
2021/10/01 10:30:25;;;;;;;1.90;0.75;;;;;;;;;;4875480;28;20246;-77
2021/10/01 10:32:47;;;;;;;2.20;0.95;;;40.30;52.60;;;;;;4874812;28;20205;-76
2021/10/01 10:35:11;;;;;;;3.05;1.45;;;40.50;52.90;;;;;;4874947;28;20239;-77
2021/10/01 10:37:41;;;;;;;0.82;0.50;;;40.60;53.20;;;;;;4875779;28;20248;-74
2021/10/01 10:40:06;;;;;;;2.63;1.33;;;40.50;53.10;;;;;;4876677;28;20193;-75
2021/10/01 10:42:37;;;;;;;0.85;0.50;;;41.20;52.90;;;;;;4874846;28;20209;-76
2021/10/01 10:45:15;;;;;;;2.13;1.05;;;40.40;53.10;;;;;;4859763;28;20220;-77
2021/10/01 10:47:44;;;;;;;2.03;0.90;;;40.10;53.00;;;;;;4874112;28;20734;-77
2021/10/01 10:50:37;;;;;;;2.08;1.13;;;40.20;52.70;;;;;;4877591;28;20193;-79
2021/10/01 10:53:24;;;;;;;4.70;2.13;;;40.60;52.80;;;;;;4878137;28;20258;-80
2021/10/01 10:55:56;;;;;;;1.55;0.75;;;40.70;52.80;;;;;;4868079;28;20197;-78
2021/10/01 10:58:37;;;;;;;1.25;0.80;;;40.70;53.00;;;;;;4877233;28;20205;-80
2021/10/01 11:01:22;;;;;;;1.90;1.02;;;41.10;53.00;;;;;;4876077;28;20232;-81
2021/10/01 11:03:45;;;;;;;1.17;0.60;;;41.60;53.10;;;;;;4860398;28;20654;-77
2021/10/01 11:06:16;;;;;;;2.47;1.17;;;41.80;53.20;;;;;;4878249;28;20185;-76
2021/10/01 11:08:42;;;;;;;1.30;0.70;;;42.10;53.70;;;;;;4860134;28;20186;-77
2021/10/01 11:11:06;;;;;;;2.15;1.17;;;42.60;53.80;;;;;;4878130;28;20196;-79
2021/10/01 11:13:30;;;;;;;0.80;0.50;;;42.30;53.40;;;;;;4867025;28;20189;-82
2021/10/01 11:16:15;;;;;;;1.95;0.98;;;42.20;53.70;;;;;;4876261;28;20228;-78
2021/10/01 11:18:59;;;;;;;1.48;0.70;;;41.60;53.10;;;;;;4862028;28;20190;-76
2021/10/01 11:21:42;;;;;;;0.75;0.50;;;41.20;53.00;;;;;;4868869;28;20255;-80
2021/10/01 11:24:08;;;;;;;1.63;0.85;;;41.10;53.30;;;;;;4878002;28;20597;-77
2021/10/01 11:26:32;;;;;;;0.98;0.60;;;41.70;53.60;;;;;;4875405;28;20185;-77
2021/10/01 11:28:55;;;;;;;1.67;0.85;;;;;;;;;;4873871;28;20177;-76
2021/10/01 11:31:18;;;;;;;1.73;0.80;;;;;;;;;;4873395;28;20185;-76
2021/10/01 11:33:48;;;;;;;1.52;0.70;;;43.00;54.00;;;;;;4877526;28;20185;-78
2021/10/01 11:36:10;;;;;;;2.45;1.15;;;43.00;53.60;;;;;;4843285;28;20213;-77
2021/10/01 11:38:34;;;;;;;1.23;0.60;;;;;;;;;;4875919;28;20239;-76
2021/10/01 11:41:10;;;;;;;1.92;0.90;;;42.90;53.50;;;;;;4829166;28;20708;-76
2021/10/01 11:43:33;;;;;;;1.10;0.60;;;;;;;;;;4867458;28;20250;-76
2021/10/01 11:45:57;;;;;;;1.67;0.85;;;43.30;54.00;;;;;;4876315;28;20193;-78
2021/10/01 11:48:20;;;;;;;2.33;1.02;;;42.60;53.60;;;;;;4842299;28;20219;-77
2021/10/01 11:50:44;;;;;;;1.08;0.50;;;43.50;54.20;;;;;;4867862;28;20186;-77
2021/10/01 11:53:16;;;;;;;4.43;1.73;;;43.40;53.70;;;;;;4858301;28;20260;-79
2021/10/01 11:55:50;;;;;;;1.20;0.60;;;43.50;53.80;;;;;;4852413;28;20728;-78
2021/10/01 11:58:18;;;;;;;1.98;0.90;;;43.50;54.20;;;;;;4877534;28;20277;-76
2021/10/01 12:00:41;;;;;;;10.43;4.53;;;42.80;53.60;;;;;;4857625;28;20194;-78
2021/10/01 12:03:03;;;;;;;3.60;1.70;;;42.90;53.60;;;;;;4875813;28;20291;-74
2021/10/01 12:05:32;;;;;;;1.45;0.80;;;44.10;54.10;;;;;;4877101;28;20322;-77
2021/10/01 12:07:56;;;;;;;0.68;0.40;;;44.90;54.60;;;;;;4867165;28;20235;-76
2021/10/01 12:10:19;;;;;;;1.58;0.80;;;44.90;54.30;;;;;;4873245;28;20251;-76
2021/10/01 12:12:59;;;;;;;1.70;0.98;;;44.90;54.60;;;;;;4835420;28;20222;-81
2021/10/01 12:15:35;;;;;;;1.05;0.50;;;44.50;54.30;;;;;;4855220;28;20267;-77
2021/10/01 12:17:57;;;;;;;1.85;0.95;;;45.00;54.50;;;;;;4856672;28;20244;-77
2021/10/01 12:20:20;;;;;;;2.47;0.88;;;44.50;54.10;;;;;;4857948;28;20190;-78
2021/10/01 12:22:42;;;;;;;1.67;0.80;;;45.10;54.50;;;;;;4824130;28;20248;-77
2021/10/01 12:25:06;;;;;;;3.05;1.38;;;45.40;54.50;;;;;;4876121;28;20197;-78
2021/10/01 12:27:40;;;;;;;1.50;0.70;;;44.90;54.20;;;;;;4843197;28;20197;-77
2021/10/01 12:30:06;;;;;;;4.65;1.63;;;44.90;54.20;;;;;;4875749;28;20254;-76
2021/10/01 12:32:30;;;;;;;1.80;0.80;;;45.10;54.70;;;;;;4845981;28;20218;-77
2021/10/01 12:34:56;;;;;;;1.30;0.60;;;45.10;54.30;;;;;;4839595;28;20276;-76
2021/10/01 12:37:21;;;;;;;4.28;1.75;;;45.90;54.60;;;;;;4839336;28;20247;-76
2021/10/01 12:39:45;;;;;;;2.30;0.98;;;46.10;54.80;;;;;;4867967;28;20233;-78
2021/10/01 12:42:10;;;;;;;1.77;0.88;;;45.70;54.60;;;;;;4875225;28;20263;-78
2021/10/01 12:44:36;;;;;;;1.65;0.73;;;45.70;54.70;;;;;;4875460;28;20193;-79
2021/10/01 12:47:10;;;;;;;4.25;1.80;;;46.20;54.80;;;;;;4864856;28;20193;-78
2021/10/01 12:49:34;;;;;;;1.00;0.57;;;46.30;55.10;;;;;;4858345;28;20205;-79
2021/10/01 12:52:15;;;;;;;2.60;1.05;;;46.40;55.10;;;;;;4856339;28;20306;-79
2021/10/01 12:54:44;;;;;;;1.77;0.70;;;45.10;54.40;;;;;;4848772;28;20228;-77
2021/10/01 12:57:10;;;;;;;3.20;1.38;;;45.50;54.40;;;;;;4859061;28;20808;-77
2021/10/01 12:59:36;;;;;;;1.38;0.63;;;45.20;54.30;;;;;;4857777;28;20212;-83
2021/10/01 13:02:07;;;;;;;1.90;0.88;;;44.20;54.30;;;;;;4860342;28;20228;-77
2021/10/01 13:04:30;;;;;;;3.10;1.15;;;;;;;;;;4874425;28;20654;-78
2021/10/01 13:06:54;;;;;;;1.75;0.77;;;43.20;54.10;;;;;;4870932;28;20266;-77
2021/10/01 13:09:37;;;;;;;2.33;1.10;;;40.90;52.90;;;;;;4866735;28;20177;-78
2021/10/01 13:12:00;;;;;;;2.15;0.95;;;39.40;52.30;;;;;;4866427;28;20239;-77
2021/10/01 13:14:23;;;;;;;1.02;0.60;;;37.20;51.60;;;;;;4873708;28;20235;-76
2021/10/01 13:16:45;;;;;;;1.15;0.73;;;35.20;50.90;;;;;;4859245;28;20194;-78
2021/10/01 13:19:12;;;;;;;1.85;1.17;;;34.50;50.90;;;;;;4849711;28;20228;-77
2021/10/01 13:21:36;;;;;;;1.00;0.60;;;32.90;50.50;;;;;;4875707;28;20189;-77
2021/10/01 13:24:02;;;;;;;2.42;1.17;;;31.80;50.10;;;;;;4875871;28;20193;-77
2021/10/01 13:26:26;;;;;;;1.40;0.80;;;30.70;49.70;;;;;;4875848;28;20242;-77
2021/10/01 13:28:52;;;;;;;0.97;0.67;;;29.70;49.30;;;;;;4856712;28;20305;-78
2021/10/01 13:31:15;;;;;;;0.93;0.53;;;28.20;48.40;;;;;;4873839;28;20493;-77
2021/10/01 13:33:38;;;;;;;1.33;0.70;;;;;;;;;;4862676;28;20208;-76
2021/10/01 13:36:00;;;;;;;1.03;0.80;;;;;;;;;;4875252;28;20181;-80
2021/10/01 13:38:28;;;;;;;1.47;0.87;;;26.50;47.50;;;;;;4864202;28;20594;-76
2021/10/01 13:40:53;;;;;;;1.10;0.90;;;26.00;47.50;;;;;;4856411;28;20666;-77
2021/10/01 13:43:16;;;;;;;0.73;0.57;;;25.80;47.70;;;;;;4874653;28;20184;-79
2021/10/01 13:45:41;;;;;;;0.60;0.60;;;25.50;47.40;;;;;;4874559;28;20190;-77
2021/10/01 13:48:04;;;;;;;1.23;1.00;;;25.00;54.80;;;;;;4873772;28;20789;-76
2021/10/01 13:50:27;;;;;;;0.63;0.60;;;;;;;;;;4871672;28;20209;-77
2021/10/01 13:52:50;;;;;;;0.67;0.60;;;24.70;61.50;;;;;;4869339;28;20216;-78
2021/10/01 13:55:15;;;;;;;0.80;0.70;;;23.40;61.00;;;;;;4873958;28;20610;-78
2021/10/01 13:57:41;;;;;;;0.63;0.57;;;22.90;60.80;;;;;;4873690;28;20208;-80
2021/10/01 14:00:06;;;;;;;1.60;1.07;;;22.90;61.20;;;;;;4873425;28;20201;-79
2021/10/01 14:02:36;;;;;;;0.43;0.43;;;22.50;61.00;;;;;;4868308;28;20227;-77
2021/10/01 14:04:59;;;;;;;0.73;0.73;;;;;;;;;;4874709;28;20199;-77
2021/10/01 14:07:22;;;;;;;0.40;0.40;;;;;;;;;;4848768;28;20228;-77
2021/10/01 14:09:44;;;;;;;0.40;0.40;;;21.60;60.10;;;;;;4850467;28;20190;-77
2021/10/01 14:12:08;;;;;;;0.60;0.60;;;21.80;60.00;;;;;;4855180;28;20243;-77
2021/10/01 14:14:32;;;;;;;0.50;0.47;;;21.00;59.80;;;;;;4878194;28;20286;-79
2021/10/01 14:16:55;;;;;;;0.53;0.50;;;;;;;;;;4877493;28;20223;-78
2021/10/01 14:19:17;;;;;;;0.30;0.30;;;;;;;;;;4879136;28;20185;-80
2021/10/01 14:21:40;;;;;;;0.40;0.40;;;;;;;;;;4851662;28;20191;-80
2021/10/01 14:24:03;;;;;;;1.07;0.80;;;;;;;;;;4859862;28;20193;-78
2021/10/01 14:26:29;;;;;;;0.33;0.30;;;20.60;59.90;;;;;;4842362;28;20205;-78
2021/10/01 14:28:52;;;;;;;0.40;0.40;;;20.50;59.80;;;;;;4847088;28;20252;-77
2021/10/01 14:31:16;;;;;;;0.30;0.30;;;20.40;59.70;;;;;;4842234;28;20250;-80
2021/10/01 14:33:39;;;;;;;0.50;0.50;;;20.00;59.30;;;;;;4865337;28;20622;-77
2021/10/01 14:36:02;;;;;;;1.13;0.90;;;;;;;;;;4873439;28;20199;-79